Time;durP1;ratioP1;P1;durP2;ratioP2;P2;SDS_P1;SDS_P2;PMS_P1;PMS_P2;Temp;Humidity;BMP_temperature;BMP_pressure;BME280_temperature;BME280_humidity;BME280_pressure;Samples;Min_cycle;Max_cycle;Signal;HPM_P1;HPM_P2
2024/03/17 00:01:42;;;;;;;22.02;11.73;;;;;;;;;;5042713;28;20111;-49
2024/03/17 00:04:07;;;;;;;18.48;10.95;;;;;;;;;;5042871;28;20131;-49
2024/03/17 00:06:33;;;;;;;19.13;11.38;;;;;;;;;;5044220;28;20411;-46
2024/03/17 00:08:58;;;;;;;17.92;10.40;;;;;;;;;;5046452;28;20026;-51
2024/03/17 00:11:23;;;;;;;18.95;9.88;;;;;;;;;;5027762;28;20497;-46
2024/03/17 00:13:49;;;;;;;14.57;9.60;;;;;;;;;;5063455;28;20362;-47
2024/03/17 00:16:17;;;;;;;15.10;9.00;;;;;;;;;;5061276;28;20069;-46
2024/03/17 00:18:42;;;;;;;14.98;9.18;;;;;;;;;;5046983;28;20026;-48
2024/03/17 00:21:08;;;;;;;14.63;7.97;;;;;;;;;;5042976;28;20127;-48
2024/03/17 00:23:34;;;;;;;12.13;7.05;;;;;;;;;;5026230;28;20025;-48
2024/03/17 00:25:59;;;;;;;10.45;6.68;;;;;;;;;;5043178;28;20428;-50
2024/03/17 00:28:24;;;;;;;12.77;6.13;;;;;;;;;;5063247;28;20047;-50
2024/03/17 00:30:50;;;;;;;13.65;6.15;;;;;;;;;;5053314;28;20029;-48
2024/03/17 00:33:15;;;;;;;10.73;6.32;;;;;;;;;;5062311;28;20024;-50
2024/03/17 00:35:40;;;;;;;8.85;5.20;;;;;;;;;;5066697;28;20017;-49
2024/03/17 00:38:10;;;;;;;12.50;5.72;;;;;;;;;;5051336;28;20032;-48
2024/03/17 00:40:35;;;;;;;;;;;;;;;;;;5046296;28;20445;-47
2024/03/17 00:43:00;;;;;;;7.03;5.05;;;;;;;;;;5059558;28;19908;-47
2024/03/17 00:45:26;;;;;;;7.30;4.57;;;;;;;;;;5066580;28;20746;-48
2024/03/17 00:47:51;;;;;;;6.97;4.70;;;;;;;;;;5064618;28;20060;-48
2024/03/17 00:50:16;;;;;;;5.85;4.22;;;;;;;;;;5066398;28;20020;-50
2024/03/17 00:52:41;;;;;;;7.40;4.05;;;;;;;;;;5064151;28;20461;-52
2024/03/17 00:55:08;;;;;;;7.72;4.60;;;;;;;;;;5047066;28;20119;-50
2024/03/17 00:57:33;;;;;;;7.55;4.30;;;;;;;;;;5053137;28;20079;-48
2024/03/17 00:59:59;;;;;;;6.25;3.90;;;;;;;;;;5010527;28;20029;-52
2024/03/17 01:02:25;;;;;;;7.72;3.83;;;;;;;;;;5046131;28;20099;-51
2024/03/17 01:04:50;;;;;;;4.95;2.85;;;;;;;;;;5045964;28;20021;-46
2024/03/17 01:07:15;;;;;;;3.90;2.60;;;;;;;;;;5031418;28;20098;-50
2024/03/17 01:09:40;;;;;;;4.88;3.00;;;;;;;;;;5045330;28;20427;-48
2024/03/17 01:12:06;;;;;;;4.72;3.30;;;;;;;;;;5012558;28;20480;-49
2024/03/17 01:14:31;;;;;;;5.32;3.15;;;;;;;;;;5065005;28;20033;-49
2024/03/17 01:16:57;;;;;;;5.22;3.35;;;;;;;;;;5062546;28;20056;-49
2024/03/17 01:19:22;;;;;;;4.85;3.15;;;;;;;;;;5045965;28;20078;-50
2024/03/17 01:21:48;;;;;;;6.15;3.42;;;;;;;;;;5045757;28;20064;-49
2024/03/17 01:24:13;;;;;;;6.38;2.92;;;;;;;;;;5045339;28;20027;-48
2024/03/17 01:26:38;;;;;;;5.88;3.05;;;;;;;;;;5045803;28;20032;-49
2024/03/17 01:29:04;;;;;;;4.95;2.78;;;;;;;;;;5045981;28;20132;-51
2024/03/17 01:31:29;;;;;;;3.13;2.60;;;;;;;;;;5046638;28;20044;-52
2024/03/17 01:33:54;;;;;;;4.55;2.70;;;;;;;;;;5065568;28;20024;-49
2024/03/17 01:36:20;;;;;;;4.18;2.85;;;;;;;;;;5054756;28;20031;-51
2024/03/17 01:38:45;;;;;;;4.05;3.28;;;;;;;;;;5064106;28;20178;-49
2024/03/17 01:41:10;;;;;;;4.13;2.85;;;;;;;;;;5058848;28;20052;-47
2024/03/17 01:43:36;;;;;;;3.63;2.50;;;;;;;;;;5064639;28;20013;-49
2024/03/17 01:46:02;;;;;;;7.80;2.65;;;;;;;;;;5050818;28;20037;-50
2024/03/17 01:48:28;;;;;;;5.25;2.70;;;;;;;;;;5062462;28;20124;-44
2024/03/17 01:50:55;;;;;;;2.95;2.65;;;;;;;;;;5047462;28;20112;-50
2024/03/17 01:53:21;;;;;;;3.53;2.60;;;;;;;;;;5063590;28;20350;-47
2024/03/17 01:55:47;;;;;;;4.53;2.95;;;;;;;;;;5065589;28;20066;-49
2024/03/17 01:58:12;;;;;;;6.40;3.05;;;;;;;;;;5011371;28;20060;-51
2024/03/17 02:00:38;;;;;;;5.00;2.75;;;;;;;;;;5065396;28;20037;-49
2024/03/17 02:03:08;;;;;;;4.05;2.75;;;;;;;;;;5048917;28;20025;-48
2024/03/17 02:05:34;;;;;;;4.18;3.00;;;;;;;;;;5044049;28;20028;-48
2024/03/17 02:07:59;;;;;;;4.13;2.50;;;;;;;;;;5057554;28;20048;-52
2024/03/17 02:10:25;;;;;;;4.60;2.60;;;;;;;;;;5064812;28;20476;-49
2024/03/17 02:12:50;;;;;;;7.47;3.58;;;;;;;;;;5063226;28;20090;-49
2024/03/17 02:15:16;;;;;;;5.63;2.85;;;;;;;;;;5064964;28;20025;-50
2024/03/17 02:17:41;;;;;;;6.40;3.33;;;;;;;;;;5054917;28;20032;-50
2024/03/17 02:20:07;;;;;;;3.88;2.78;;;;;;;;;;5044900;28;20121;-50
2024/03/17 02:22:34;;;;;;;3.70;2.85;;;;;;;;;;5054075;28;20028;-49
2024/03/17 02:24:59;;;;;;;3.85;2.70;;;;;;;;;;5064894;28;20020;-48
2024/03/17 02:27:25;;;;;;;3.88;2.80;;;;;;;;;;5034520;28;20048;-50
2024/03/17 02:29:50;;;;;;;4.95;2.88;;;;;;;;;;5044788;28;20029;-49
2024/03/17 02:32:15;;;;;;;5.38;3.03;;;;;;;;;;5051528;28;20029;-48
2024/03/17 02:34:41;;;;;;;4.70;2.95;;;;;;;;;;5064793;28;20020;-53
2024/03/17 02:37:06;;;;;;;4.57;2.60;;;;;;;;;;5053506;28;20031;-50
2024/03/17 02:39:35;;;;;;;3.75;2.55;;;;;;;;;;5064333;28;20024;-48
2024/03/17 02:42:02;;;;;;;6.25;2.95;;;;;;;;;;5056112;28;20025;-47
2024/03/17 02:44:27;;;;;;;5.68;2.70;;;;;;;;;;5044210;28;20116;-49
2024/03/17 02:46:53;;;;;;;5.90;2.90;;;;;;;;;;5048518;28;20158;-48
2024/03/17 02:49:18;;;;;;;5.22;2.47;;;;;;;;;;5050719;28;20114;-49
2024/03/17 02:51:43;;;;;;;5.03;2.63;;;;;;;;;;5046825;28;20028;-49
2024/03/17 02:54:09;;;;;;;3.15;2.50;;;;;;;;;;5064047;28;20028;-47
2024/03/17 02:56:34;;;;;;;4.72;2.92;;;;;;;;;;5060483;28;20110;-48
2024/03/17 02:58:59;;;;;;;3.60;2.70;;;;;;;;;;5064446;28;20075;-50
2024/03/17 03:01:25;;;;;;;5.75;2.67;;;;;;;;;;5061952;28;20524;-50
2024/03/17 03:03:50;;;;;;;4.95;2.65;;;;;;;;;;5064096;28;20035;-48
2024/03/17 03:06:19;;;;;;;3.60;2.40;;;;;;;;;;5053039;28;20501;-49
2024/03/17 03:08:48;;;;;;;6.53;2.70;;;;;;;;;;5026158;28;20033;-51
2024/03/17 03:11:13;;;;;;;5.30;2.70;;;;;;;;;;5036995;28;20032;-46
2024/03/17 03:13:39;;;;;;;3.47;2.58;;;;;;;;;;5060644;28;20028;-50
2024/03/17 03:16:05;;;;;;;3.05;2.60;;;;;;;;;;5047321;28;20030;-48
2024/03/17 03:18:31;;;;;;;5.68;2.38;;;;;;;;;;5043851;28;20083;-47
2024/03/17 03:20:56;;;;;;;3.25;2.80;;;;;;;;;;5063930;28;20036;-47
2024/03/17 03:23:21;;;;;;;4.85;2.42;;;;;;;;;;5061581;28;20569;-48
2024/03/17 03:25:47;;;;;;;5.60;3.00;;;;;;;;;;5063480;28;20025;-48
2024/03/17 03:28:13;;;;;;;3.40;2.53;;;;;;;;;;5047941;28;20029;-50
2024/03/17 03:30:38;;;;;;;5.57;2.83;;;;;;;;;;5043060;28;20566;-52
2024/03/17 03:33:05;;;;;;;4.30;2.83;;;;;;;;;;5043238;28;20060;-49
2024/03/17 03:35:30;;;;;;;5.55;2.80;;;;;;;;;;5008051;28;20049;-50
2024/03/17 03:37:56;;;;;;;4.18;2.55;;;;;;;;;;5056249;28;20437;-49
2024/03/17 03:40:21;;;;;;;3.33;2.50;;;;;;;;;;5063179;28;20025;-48
2024/03/17 03:42:47;;;;;;;3.67;2.83;;;;;;;;;;5061557;28;20028;-49
2024/03/17 03:45:12;;;;;;;3.88;3.00;;;;;;;;;;5063416;28;20125;-47
2024/03/17 03:47:41;;;;;;;4.45;3.00;;;;;;;;;;5050327;28;20023;-49
2024/03/17 03:50:15;;;;;;;4.90;3.15;;;;;;;;;;5043254;28;20052;-49
2024/03/17 03:52:41;;;;;;;4.80;3.15;;;;;;;;;;5054081;28;20032;-48
2024/03/17 03:55:07;;;;;;;4.88;3.13;;;;;;;;;;5063780;28;20332;-49
2024/03/17 03:57:33;;;;;;;3.80;3.13;;;;;;;;;;5061786;28;20750;-52
2024/03/17 03:59:59;;;;;;;4.32;3.05;;;;;;;;;;5063528;28;20021;-50
2024/03/17 04:02:31;;;;;;;4.82;3.05;;;;;;;;;;5062860;28;20100;-52
2024/03/17 04:04:56;;;;;;;4.68;3.20;;;;;;;;;;5067386;28;20024;-47
2024/03/17 04:07:21;;;;;;;6.85;3.30;;;;;;;;;;5063885;28;20075;-46
2024/03/17 04:09:47;;;;;;;4.07;3.25;;;;;;;;;;5027916;28;20422;-50
2024/03/17 04:12:12;;;;;;;4.72;3.58;;;;;;;;;;5048796;28;20072;-51
2024/03/17 04:14:38;;;;;;;4.15;3.03;;;;;;;;;;5046528;28;20039;-50
2024/03/17 04:17:03;;;;;;;5.35;3.47;;;;;;;;;;5051035;28;20021;-51
2024/03/17 04:19:29;;;;;;;6.40;3.25;;;;;;;;;;5047229;28;20021;-50
2024/03/17 04:21:54;;;;;;;6.63;3.60;;;;;;;;;;5016342;28;20044;-51
2024/03/17 04:24:19;;;;;;;4.97;3.60;;;;;;;;;;5066974;28;20020;-50
2024/03/17 04:26:45;;;;;;;5.55;3.30;;;;;;;;;;5065236;28;20907;-47
2024/03/17 04:29:10;;;;;;;4.40;3.45;;;;;;;;;;5067222;28;20031;-51
2024/03/17 04:31:35;;;;;;;4.90;3.63;;;;;;;;;;5062927;28;20496;-55
2024/03/17 04:34:00;;;;;;;5.75;3.70;;;;;;;;;;5047111;28;20120;-47
2024/03/17 04:36:26;;;;;;;3.80;3.22;;;;;;;;;;5022858;28;20116;-51
2024/03/17 04:38:51;;;;;;;5.55;3.90;;;;;;;;;;5024154;28;20037;-51
2024/03/17 04:41:17;;;;;;;5.65;3.80;;;;;;;;;;5023348;28;20223;-48
2024/03/17 04:43:42;;;;;;;5.20;3.40;;;;;;;;;;5024062;28;20037;-52
2024/03/17 04:46:11;;;;;;;6.00;3.80;;;;;;;;;;5023863;28;20482;-50
2024/03/17 04:48:36;;;;;;;4.57;3.58;;;;;;;;;;5024961;28;20044;-50
2024/03/17 04:51:02;;;;;;;4.45;3.60;;;;;;;;;;5023914;28;20033;-51
2024/03/17 04:53:27;;;;;;;5.63;3.58;;;;;;;;;;5023484;28;20370;-50
2024/03/17 04:55:59;;;;;;;5.75;3.95;;;;;;;;;;5023901;28;20514;-49
2024/03/17 04:58:25;;;;;;;5.47;3.63;;;;;;;;;;5034861;28;20025;-51
2024/03/17 05:00:50;;;;;;;5.30;3.92;;;;;;;;;;5023652;28;20186;-50
2024/03/17 05:03:15;;;;;;;4.53;3.50;;;;;;;;;;5023073;28;20045;-49
2024/03/17 05:05:41;;;;;;;4.60;3.60;;;;;;;;;;5022940;28;20608;-50
2024/03/17 05:08:06;;;;;;;5.63;3.85;;;;;;;;;;5040989;28;20489;-48
2024/03/17 05:10:31;;;;;;;5.55;3.88;;;;;;;;;;5045145;28;20033;-52
2024/03/17 05:12:57;;;;;;;3.45;3.13;;;;;;;;;;5049795;28;20131;-46
2024/03/17 05:15:22;;;;;;;4.38;3.55;;;;;;;;;;5046057;28;20026;-51
2024/03/17 05:17:47;;;;;;;5.82;3.17;;;;;;;;;;5050072;28;20021;-49
2024/03/17 05:20:13;;;;;;;4.97;3.95;;;;;;;;;;5065402;28;20085;-48
2024/03/17 05:22:39;;;;;;;4.20;3.60;;;;;;;;;;5063537;28;20024;-47
2024/03/17 05:25:04;;;;;;;3.88;3.10;;;;;;;;;;5063801;28;20516;-50
2024/03/17 05:27:30;;;;;;;5.10;3.40;;;;;;;;;;5046668;28;20040;-48
2024/03/17 05:29:55;;;;;;;4.22;3.42;;;;;;;;;;5045611;28;20044;-49
2024/03/17 05:32:21;;;;;;;5.30;3.17;;;;;;;;;;5053025;28;20024;-48
2024/03/17 05:34:46;;;;;;;5.78;3.15;;;;;;;;;;5052030;28;20463;-50
2024/03/17 05:37:12;;;;;;;3.63;3.03;;;;;;;;;;5045734;28;20017;-51
2024/03/17 05:39:37;;;;;;;4.72;3.17;;;;;;;;;;5045022;28;20500;-50
2024/03/17 05:42:03;;;;;;;5.25;3.25;;;;;;;;;;5050181;28;20045;-48
2024/03/17 05:44:29;;;;;;;3.45;2.90;;;;;;;;;;5060858;28;20060;-49
2024/03/17 05:46:57;;;;;;;5.40;3.50;;;;;;;;;;5050056;28;20071;-48
2024/03/17 05:49:23;;;;;;;4.70;3.53;;;;;;;;;;5063018;28;20036;-48
2024/03/17 05:51:48;;;;;;;7.22;2.70;;;;;;;;;;5045297;28;20025;-49
2024/03/17 05:54:13;;;;;;;5.53;3.08;;;;;;;;;;5057699;28;20048;-48
2024/03/17 05:56:39;;;;;;;5.90;2.83;;;;;;;;;;5055705;28;20031;-49
2024/03/17 05:59:05;;;;;;;4.72;3.10;;;;;;;;;;5025818;28;20029;-47
2024/03/17 06:01:30;;;;;;;3.10;2.70;;;;;;;;;;5045291;28;20028;-49
2024/03/17 06:03:55;;;;;;;3.47;2.45;;;;;;;;;;5065059;28;20051;-48
2024/03/17 06:06:22;;;;;;;3.95;2.85;;;;;;;;;;5060534;28;20490;-50
2024/03/17 06:08:49;;;;;;;2.83;2.38;;;;;;;;;;5064634;28;20074;-47
2024/03/17 06:11:14;;;;;;;3.35;2.40;;;;;;;;;;5062984;28;20123;-50
2024/03/17 06:13:40;;;;;;;3.40;2.75;;;;;;;;;;5047059;28;20159;-47
2024/03/17 06:16:05;;;;;;;4.10;2.47;;;;;;;;;;5044640;28;20492;-47
2024/03/17 06:18:31;;;;;;;3.80;2.13;;;;;;;;;;5062773;28;20425;-52
2024/03/17 06:20:58;;;;;;;3.13;2.25;;;;;;;;;;5061902;28;20036;-50
2024/03/17 06:23:23;;;;;;;3.33;2.40;;;;;;;;;;5044860;28;20020;-49
2024/03/17 06:25:50;;;;;;;5.05;2.40;;;;;;;;;;5043513;28;20116;-49
2024/03/17 06:28:16;;;;;;;3.88;2.40;;;;;;;;;;5059787;28;20297;-50
2024/03/17 06:30:48;;;;;;;5.35;3.17;;;;;;;;;;5064411;28;20025;-49
2024/03/17 06:33:13;;;;;;;2.72;2.10;;;;;;;;;;5062209;28;20033;-48
2024/03/17 06:35:39;;;;;;;4.47;2.30;;;;;;;;;;5062021;28;20043;-48
2024/03/17 06:38:05;;;;;;;3.75;2.40;;;;;;;;;;5048502;28;20053;-49
2024/03/17 06:40:30;;;;;;;3.80;2.58;;;;;;;;;;5044322;28;20562;-52
2024/03/17 06:42:56;;;;;;;3.58;2.42;;;;;;;;;;5056921;28;20393;-47
2024/03/17 06:45:21;;;;;;;3.55;2.08;;;;;;;;;;5044587;28;20064;-52
2024/03/17 06:47:46;;;;;;;4.18;2.25;;;;;;;;;;5053742;28;20101;-45
2024/03/17 06:50:12;;;;;;;3.25;1.83;;;;;;;;;;5064257;28;20059;-46
2024/03/17 06:52:37;;;;;;;3.67;2.10;;;;;;;;;;5062550;28;20468;-48
2024/03/17 06:55:03;;;;;;;2.65;1.90;;;;;;;;;;5064166;28;20033;-50
2024/03/17 06:57:28;;;;;;;4.10;1.80;;;;;;;;;;5010153;28;20556;-49
2024/03/17 06:59:53;;;;;;;2.72;1.60;;;;;;;;;;5048919;28;20031;-50
2024/03/17 07:02:19;;;;;;;3.10;1.95;;;;;;;;;;5047381;28;20094;-50
2024/03/17 07:04:45;;;;;;;4.35;1.98;;;;;;;;;;5044475;28;20032;-51
2024/03/17 07:07:12;;;;;;;3.60;2.03;;;;;;;;;;5050559;28;20044;-52
2024/03/17 07:09:38;;;;;;;4.32;2.35;;;;;;;;;;5064234;28;20035;-49
2024/03/17 07:12:04;;;;;;;4.35;1.90;;;;;;;;;;5061800;28;20064;-47
2024/03/17 07:14:31;;;;;;;2.30;1.63;;;;;;;;;;5026609;28;20102;-52
2024/03/17 07:16:56;;;;;;;3.85;2.13;;;;;;;;;;5054076;28;20029;-49
2024/03/17 07:19:22;;;;;;;3.78;2.15;;;;;;;;;;5052188;28;20135;-51
2024/03/17 07:21:47;;;;;;;4.05;2.25;;;;;;;;;;5058638;28;20309;-47
2024/03/17 07:24:12;;;;;;;3.77;2.40;;;;;;;;;;5042789;28;20025;-49
2024/03/17 07:26:37;;;;;;;3.50;1.80;;;;;;;;;;5045496;28;20249;-47
2024/03/17 07:29:03;;;;;;;3.60;2.17;;;;;;;;;;5063432;28;20610;-49
2024/03/17 07:31:28;;;;;;;3.97;1.80;;;;;;;;;;5061844;28;20351;-47
2024/03/17 07:33:53;;;;;;;3.05;2.20;;;;;;;;;;5052521;28;20028;-48
2024/03/17 07:36:19;;;;;;;5.57;2.40;;;;;;;;;;5042049;28;20794;-47
2024/03/17 07:38:44;;;;;;;3.70;1.92;;;;;;;;;;5061337;28;20063;-51
2024/03/17 07:41:09;;;;;;;3.05;1.92;;;;;;;;;;5043443;28;20033;-48
2024/03/17 07:43:35;;;;;;;2.35;1.83;;;;;;;;;;5044237;28;20461;-48
2024/03/17 07:46:14;;;;;;;2.90;1.70;;;;;;;;;;5043635;28;20033;-48
2024/03/17 07:48:40;;;;;;;4.25;1.70;;;;;;;;;;5062738;28;20123;-52
2024/03/17 07:51:16;;;;;;;1.67;1.58;;;;;;;;;;5063455;28;20024;-53
2024/03/17 07:53:42;;;;;;;28.60;23.50;;;;;;;;;;5063244;28;20102;-51
2024/03/17 07:56:09;;;;;;;2.85;1.77;;;;;;;;;;5063333;28;20017;-49
2024/03/17 07:58:35;;;;;;;4.00;1.60;;;;;;;;;;5062158;28;20064;-52
2024/03/17 08:01:01;;;;;;;2.92;1.50;;;;;;;;;;5063576;28;20104;-48
2024/03/17 08:03:34;;;;;;;3.03;1.33;;;;;;;;;;5060882;28;20607;-50
2024/03/17 08:06:00;;;;;;;3.17;1.75;;;;;;;;;;5055143;28;20028;-51
2024/03/17 08:08:26;;;;;;;1.52;1.30;;;;;;;;;;5060288;28;20237;-49
2024/03/17 08:10:51;;;;;;;3.05;1.50;;;;;;;;;;5044020;28;20763;-52
2024/03/17 08:13:20;;;;;;;3.15;1.60;;;;;;;;;;5061244;28;20039;-51
2024/03/17 08:15:46;;;;;;;3.67;1.70;;;;;;;;;;5062935;28;20025;-50
2024/03/17 08:18:12;;;;;;;2.88;1.67;;;;;;;;;;5004803;28;20377;-50
2024/03/17 08:20:40;;;;;;;3.17;1.45;;;;;;;;;;5063232;28;20024;-49
2024/03/17 08:23:06;;;;;;;1.60;1.50;;;;;;;;;;5061697;28;20235;-50
2024/03/17 08:25:31;;;;;;;5.25;1.52;;;;;;;;;;5060576;28;20222;-50
2024/03/17 08:27:57;;;;;;;4.65;1.38;;;;;;;;;;5043608;28;20052;-50
2024/03/17 08:30:22;;;;;;;3.08;1.40;;;;;;;;;;5043323;28;20041;-51
2024/03/17 08:32:47;;;;;;;1.97;1.33;;;;;;;;;;5055191;28;20497;-52
2024/03/17 08:35:12;;;;;;;2.63;1.75;;;;;;;;;;5062014;28;20253;-50
2024/03/17 08:37:38;;;;;;;3.08;1.90;;;;;;;;;;5044738;28;20356;-48
2024/03/17 08:40:06;;;;;;;3.65;1.33;;;;;;;;;;5042971;28;20064;-49
2024/03/17 08:42:31;;;;;;;43.70;28.33;;;;;;;;;;5044498;28;20358;-50
2024/03/17 08:44:56;;;;;;;4.53;4.07;;;;;;;;;;5042969;28;20123;-49
2024/03/17 08:47:22;;;;;;;4.18;2.90;;;;;;;;;;5043117;28;20096;-48
2024/03/17 08:49:50;;;;;;;12.45;11.32;;;;;;;;;;5046069;28;20843;-52
2024/03/17 08:52:16;;;;;;;15.27;14.05;;;;;;;;;;5053239;28;20025;-47
2024/03/17 08:54:42;;;;;;;4.40;2.03;;;;;;;;;;5049669;28;20032;-47
2024/03/17 08:57:08;;;;;;;59.80;54.95;;;;;;;;;;5034938;28;20101;-48
2024/03/17 08:59:33;;;;;;;34.30;31.05;;;;;;;;;;5054332;28;20033;-48
2024/03/17 09:01:58;;;;;;;126.82;115.63;;;;;;;;;;5049705;28;20039;-48
2024/03/17 09:04:23;;;;;;;6.78;1.30;;;;;;;;;;5046196;28;20488;-48
2024/03/17 09:06:50;;;;;;;1.70;1.10;;;;;;;;;;5046236;28;21196;-47
2024/03/17 09:09:15;;;;;;;7.05;1.15;;;;;;;;;;5046656;28;20917;-50
2024/03/17 09:11:40;;;;;;;2.33;1.20;;;;;;;;;;5046374;28;20111;-51
2024/03/17 09:14:06;;;;;;;7.53;1.40;;;;;;;;;;5046306;28;20104;-50
2024/03/17 09:16:32;;;;;;;4.95;1.30;;;;;;;;;;5012028;28;20347;-47
2024/03/17 09:18:57;;;;;;;4.05;1.40;;;;;;;;;;5048141;28;20116;-48
2024/03/17 09:21:23;;;;;;;2.88;1.20;;;;;;;;;;5048072;28;20106;-48
2024/03/17 09:23:48;;;;;;;2.10;1.10;;;;;;;;;;5063912;28;20094;-49
2024/03/17 09:26:17;;;;;;;2.58;1.15;;;;;;;;;;5060607;28;20048;-46
2024/03/17 09:28:43;;;;;;;1.63;1.02;;;;;;;;;;5046288;28;20025;-49
2024/03/17 09:31:10;;;;;;;3.83;1.35;;;;;;;;;;5045503;28;20311;-50
2024/03/17 09:33:36;;;;;;;4.22;0.98;;;;;;;;;;5065408;28;20651;-48
2024/03/17 09:36:10;;;;;;;3.60;1.00;;;;;;;;;;5046732;28;20031;-45
2024/03/17 09:38:36;;;;;;;2.38;1.02;;;;;;;;;;5065228;28;20040;-49
2024/03/17 09:41:01;;;;;;;6.68;1.10;;;;;;;;;;5057791;28;20029;-51
2024/03/17 09:43:27;;;;;;;5.18;1.17;;;;;;;;;;5063436;28;20028;-49
2024/03/17 09:45:57;;;;;;;3.03;1.10;;;;;;;;;;5065276;28;20025;-50
2024/03/17 09:48:22;;;;;;;5.53;1.20;;;;;;;;;;5045702;28;20021;-49
2024/03/17 09:50:52;;;;;;;7.10;1.88;;;;;;;;;;5045753;28;20021;-50
2024/03/17 09:53:22;;;;;;;2.42;1.20;;;;;;;;;;5061628;28;20028;-48
2024/03/17 09:55:47;;;;;;;4.47;1.23;;;;;;;;;;5064046;28;20024;-48
2024/03/17 09:58:17;;;;;;;3.90;0.90;;;;;;;;;;5043348;28;20101;-49
2024/03/17 10:00:43;;;;;;;2.72;0.90;;;;;;;;;;5046398;28;20028;-50
2024/03/17 10:03:08;;;;;;;2.35;0.98;;;;;;;;;;5063519;28;20466;-50
2024/03/17 10:05:33;;;;;;;3.67;1.20;;;;;;;;;;5062900;28;20029;-51
2024/03/17 10:07:59;;;;;;;4.53;1.20;;;;;;;;;;5058749;28;20061;-51
2024/03/17 10:10:24;;;;;;;3.67;0.93;;;;;;;;;;5018041;28;20041;-49
2024/03/17 10:12:53;;;;;;;4.05;1.38;;;;;;;;;;5045138;28;20024;-53
2024/03/17 10:15:19;;;;;;;1.23;0.80;;;;;;;;;;5045068;28;20025;-48
2024/03/17 10:17:44;;;;;;;8.25;1.10;;;;;;;;;;5022569;28;20098;-51
2024/03/17 10:20:17;;;;;;;7.50;1.20;;;;;;;;;;5065136;28;20020;-51
2024/03/17 10:22:58;;;;;;;3.92;1.10;;;;;;;;;;5044684;28;20033;-51
2024/03/17 10:25:24;;;;;;;2.97;0.85;;;;;;;;;;5044679;28;20021;-49
2024/03/17 10:27:49;;;;;;;3.28;1.20;;;;;;;;;;5056915;28;20086;-49
2024/03/17 10:30:18;;;;;;;3.30;1.35;;;;;;;;;;5065156;28;20100;-51
2024/03/17 10:32:44;;;;;;;3.92;0.90;;;;;;;;;;5058446;28;20504;-48
2024/03/17 10:35:28;;;;;;;4.53;0.90;;;;;;;;;;5012648;28;20032;-49
2024/03/17 10:37:54;;;;;;;4.38;1.00;;;;;;;;;;5045228;28;20029;-51
2024/03/17 10:40:19;;;;;;;2.30;1.05;;;;;;;;;;5044761;28;20043;-47
2024/03/17 10:42:48;;;;;;;1.20;0.70;;;;;;;;;;5056128;28;20036;-47
2024/03/17 10:45:13;;;;;;;4.97;1.10;;;;;;;;;;5064797;28;20138;-49
2024/03/17 10:47:40;;;;;;;2.42;0.88;;;;;;;;;;5062272;28;20024;-49
2024/03/17 10:50:09;;;;;;;3.38;0.95;;;;;;;;;;5054824;28;20017;-50
2024/03/17 10:52:35;;;;;;;;;;;;;;;;;;5053957;28;20039;-51
2024/03/17 10:55:02;;;;;;;5.47;1.00;;;;;;;;;;5064400;28;19916;-49
2024/03/17 10:57:38;;;;;;;4.47;1.08;;;;;;;;;;5054003;28;20094;-50
2024/03/17 11:00:05;;;;;;;3.28;0.80;;;;;;;;;;5043366;28;20090;-49
2024/03/17 11:02:32;;;;;;;6.95;1.00;;;;;;;;;;5048019;28;20367;-51
2024/03/17 11:05:18;;;;;;;1.67;0.68;;;;;;;;;;5044383;28;20783;-48
2024/03/17 11:07:46;;;;;;;2.83;1.17;;;;;;;;;;5004383;28;20049;-50
2024/03/17 11:10:19;;;;;;;2.03;0.90;;;;;;;;;;5045236;28;20402;-49
2024/03/17 11:12:45;;;;;;;3.63;0.88;;;;;;;;;;5047808;28;20444;-47
2024/03/17 11:15:19;;;;;;;3.97;0.80;;;;;;;;;;5057831;28;20036;-50
2024/03/17 11:17:51;;;;;;;2.25;0.90;;;;;;;;;;5052433;28;20329;-47
2024/03/17 11:20:27;;;;;;;6.25;0.90;;;;;;;;;;5042888;28;20459;-51
2024/03/17 11:22:56;;;;;;;6.20;0.90;;;;;;;;;;5045053;28;20082;-49
2024/03/17 11:25:30;;;;;;;4.95;0.98;;;;;;;;;;5023013;28;20029;-50
2024/03/17 11:27:56;;;;;;;2.22;0.98;;;;;;;;;;5031298;28;20090;-52
2024/03/17 11:30:40;;;;;;;3.42;0.93;;;;;;;;;;5025768;28;20025;-46
2024/03/17 11:33:24;;;;;;;3.22;0.77;;;;;;;;;;5058035;28;20385;-53
2024/03/17 11:35:49;;;;;;;2.22;0.90;;;;;;;;;;5042794;28;20052;-49
2024/03/17 11:38:34;;;;;;;2.50;1.02;;;;;;;;;;5042539;28;20068;-51
2024/03/17 11:41:32;;;;;;;5.38;0.88;;;;;;;;;;4961943;28;20112;-51
2024/03/17 11:44:16;;;;;;;4.53;1.00;;;;;;;;;;4923965;29;20484;-48
2024/03/17 11:46:42;;;;;;;6.18;0.80;;;;;;;;;;4926610;29;20054;-47
2024/03/17 11:49:16;;;;;;;3.00;0.85;;;;;;;;;;4943178;29;20030;-49
2024/03/17 11:51:41;;;;;;;4.10;0.98;;;;;;;;;;4938188;29;20404;-49
2024/03/17 11:54:12;;;;;;;1.27;0.98;;;;;;;;;;4942829;29;20035;-51
2024/03/17 11:56:37;;;;;;;2.75;0.88;;;;;;;;;;4940438;29;20070;-46
2024/03/17 11:59:05;;;;;;;1.47;0.83;;;;;;;;;;4942847;29;20035;-53
2024/03/17 12:01:30;;;;;;;1.53;0.80;;;;;;;;;;4940263;28;20894;-52
2024/03/17 12:03:57;;;;;;;4.80;1.15;;;;;;;;;;4942812;28;21085;-49
2024/03/17 12:06:23;;;;;;;5.03;0.85;;;;;;;;;;4922432;29;20063;-47
2024/03/17 12:08:48;;;;;;;2.90;0.80;;;;;;;;;;4942955;29;20507;-49
2024/03/17 12:11:18;;;;;;;1.73;0.65;;;;;;;;;;4941650;29;20391;-50
2024/03/17 12:13:43;;;;;;;4.95;0.80;;;;;;;;;;4926533;29;20047;-49
2024/03/17 12:16:13;;;;;;;7.18;1.00;;;;;;;;;;4940968;28;20042;-46
2024/03/17 12:18:40;;;;;;;;;;;;;;;;;;4988251;28;20122;-46
2024/03/17 12:21:11;;;;;;;1.35;0.77;;;;;;;;;;5042990;28;19928;-46
2024/03/17 12:23:36;;;;;;;1.33;1.02;;;;;;;;;;5046520;28;20433;-48
2024/03/17 12:26:01;;;;;;;3.72;1.33;;;;;;;;;;4995198;28;20079;-47
2024/03/17 12:28:27;;;;;;;2.67;1.48;;;;;;;;;;5064350;28;20026;-47
2024/03/17 12:30:53;;;;;;;3.50;1.00;;;;;;;;;;5065542;28;20416;-50
2024/03/17 12:33:19;;;;;;;3.45;0.70;;;;;;;;;;5048813;28;20814;-53
2024/03/17 12:35:45;;;;;;;1.77;1.00;;;;;;;;;;5047035;28;20401;-50
2024/03/17 12:38:23;;;;;;;5.93;1.10;;;;;;;;;;5047158;28;20013;-50
2024/03/17 12:40:48;;;;;;;1.60;0.77;;;;;;;;;;5047063;28;20473;-48
2024/03/17 12:43:13;;;;;;;3.42;1.10;;;;;;;;;;5063159;28;20031;-51
2024/03/17 12:45:38;;;;;;;6.82;1.00;;;;;;;;;;5067210;28;20554;-46
2024/03/17 12:48:12;;;;;;;1.65;0.80;;;;;;;;;;5064875;28;20097;-49
2024/03/17 12:50:43;;;;;;;3.50;1.00;;;;;;;;;;5062214;28;20064;-50
2024/03/17 12:53:15;;;;;;;5.03;1.20;;;;;;;;;;5062119;28;20032;-48
2024/03/17 13:01:28;;;;;;;2.88;1.20;;;;;;;;;;4962088;28;20027;-47
2024/03/17 13:03:53;;;;;;;4.88;1.10;;;;;;;;;;4965306;28;20464;-50
2024/03/17 13:06:26;;;;;;;2.80;1.15;;;;;;;;;;4959758;28;20081;-49
2024/03/17 13:08:51;;;;;;;6.50;1.58;;;;;;;;;;4963433;28;20066;-51
2024/03/17 13:11:17;;;;;;;1.92;0.80;;;;;;;;;;4962691;28;20035;-46
2024/03/17 13:13:42;;;;;;;2.88;0.93;;;;;;;;;;4948870;28;20126;-46
2024/03/17 13:16:08;;;;;;;2.60;1.30;;;;;;;;;;4958746;28;20082;-48
2024/03/17 13:18:33;;;;;;;2.10;1.00;;;;;;;;;;4963678;28;20078;-49
2024/03/17 13:21:01;;;;;;;3.27;1.10;;;;;;;;;;4963466;28;20050;-44
2024/03/17 13:23:26;;;;;;;2.70;1.00;;;;;;;;;;4962144;28;20537;-49
2024/03/17 13:25:51;;;;;;;3.85;1.35;;;;;;;;;;4964937;28;20563;-50
2024/03/17 13:28:16;;;;;;;5.05;1.20;;;;;;;;;;4961371;28;20034;-50
2024/03/17 13:30:43;;;;;;;1.90;1.13;;;;;;;;;;4962471;28;20125;-47
2024/03/17 13:33:08;;;;;;;2.58;1.13;;;;;;;;;;5045143;28;20052;-48
2024/03/17 13:35:35;;;;;;;3.25;1.10;;;;;;;;;;5045968;28;20151;-53
2024/03/17 13:38:01;;;;;;;2.53;1.10;;;;;;;;;;5046254;28;20057;-46
2024/03/17 13:40:26;;;;;;;1.45;1.10;;;;;;;;;;4994224;28;20132;-51
2024/03/17 13:42:53;;;;;;;2.35;0.80;;;;;;;;;;5058565;28;20146;-48
2024/03/17 13:45:20;;;;;;;2.65;1.20;;;;;;;;;;5012952;28;20036;-51
2024/03/17 13:48:03;;;;;;;7.50;1.45;;;;;;;;;;5057329;28;20033;-50
2024/03/17 13:50:30;;;;;;;2.90;1.10;;;;;;;;;;5065965;28;20031;-46
2024/03/17 13:52:55;;;;;;;2.38;1.05;;;;;;;;;;5061105;28;20036;-50
2024/03/17 13:55:21;;;;;;;4.03;1.33;;;;;;;;;;5065470;28;20029;-49
2024/03/17 13:57:51;;;;;;;4.30;1.13;;;;;;;;;;5063685;28;20016;-47
2024/03/17 14:00:16;;;;;;;;;;;;;;;;;;5065801;28;20024;-50
2024/03/17 14:02:45;;;;;;;2.37;1.20;;;;;;;;;;5061579;28;19961;-50
2024/03/17 14:05:14;;;;;;;3.63;1.17;;;;;;;;;;5065812;28;20292;-49
2024/03/17 14:07:40;;;;;;;3.83;1.23;;;;;;;;;;5063304;28;20708;-51
2024/03/17 14:10:08;;;;;;;5.43;1.10;;;;;;;;;;5065762;28;20326;-50
2024/03/17 14:12:33;;;;;;;8.38;1.40;;;;;;;;;;5052432;28;20032;-51
2024/03/17 14:14:58;;;;;;;3.08;1.27;;;;;;;;;;5045723;28;20072;-52
2024/03/17 14:17:24;;;;;;;3.42;1.10;;;;;;;;;;5048891;28;20021;-47
2024/03/17 14:19:49;;;;;;;3.08;1.17;;;;;;;;;;5026330;28;20105;-45
2024/03/17 14:22:15;;;;;;;3.10;1.33;;;;;;;;;;5051885;28;20469;-47
2024/03/17 14:24:43;;;;;;;3.78;1.15;;;;;;;;;;5044516;28;20324;-50
2024/03/17 14:27:11;;;;;;;3.08;1.10;;;;;;;;;;4980870;28;20098;-48
2024/03/17 14:29:37;;;;;;;3.03;1.20;;;;;;;;;;5053366;28;20032;-51
2024/03/17 14:32:03;;;;;;;6.93;1.35;;;;;;;;;;5062837;28;20047;-51
2024/03/17 14:34:34;;;;;;;2.33;1.00;;;;;;;;;;5065337;28;20050;-48
2024/03/17 14:36:59;;;;;;;2.10;1.10;;;;;;;;;;5049164;28;20394;-51
2024/03/17 14:39:28;;;;;;;7.70;1.30;;;;;;;;;;5047701;28;20021;-50
2024/03/17 14:41:53;;;;;;;3.15;1.15;;;;;;;;;;5045152;28;20033;-49
2024/03/17 14:44:19;;;;;;;1.67;1.00;;;;;;;;;;5044165;28;20029;-50
2024/03/17 14:46:44;;;;;;;3.72;1.10;;;;;;;;;;5047552;28;20012;-48